createdAt,value
2022-12-25T00:01:11.845Z,6.97
2022-12-25T00:03:38.881Z,6.73
2022-12-25T00:06:05.800Z,5.43
2022-12-25T00:08:33.956Z,4.33
2022-12-25T00:11:01.576Z,5.87
2022-12-25T00:13:29.216Z,4.20
2022-12-25T00:15:56.394Z,6.93
2022-12-25T00:18:23.325Z,4.73
2022-12-25T00:20:57.641Z,5.30
2022-12-25T00:23:24.492Z,4.90
2022-12-25T00:25:51.324Z,4.70
2022-12-25T00:28:18.023Z,7.83
2022-12-25T00:30:44.713Z,6.10
2022-12-25T00:33:11.311Z,8.63
2022-12-25T00:35:38.051Z,5.03
2022-12-25T00:38:04.702Z,5.77
2022-12-25T00:40:31.314Z,4.80
2022-12-25T00:43:01.150Z,6.17
2022-12-25T00:45:27.909Z,6.97
2022-12-25T00:47:54.484Z,8.00
2022-12-25T00:50:21.134Z,6.20
2022-12-25T00:52:47.751Z,4.73
2022-12-25T00:55:14.410Z,6.83
2022-12-25T00:57:40.962Z,5.50
2022-12-25T01:00:08.220Z,9.50
2022-12-25T01:02:35.297Z,7.43
2022-12-25T01:05:01.902Z,5.73
2022-12-25T01:07:33.412Z,6.43
2022-12-25T01:10:18.819Z,4.23
2022-12-25T01:12:47.161Z,6.97
2022-12-25T01:15:14.129Z,7.33
2022-12-25T01:17:41.366Z,4.47
2022-12-25T01:20:08.228Z,8.53
2022-12-25T01:22:35.009Z,6.53
2022-12-25T01:25:01.755Z,11.10
2022-12-25T01:27:28.516Z,6.03
2022-12-25T01:29:55.082Z,6.03
2022-12-25T01:32:21.623Z,5.70
2022-12-25T01:34:53.841Z,5.23
2022-12-25T01:37:22.226Z,6.70
2022-12-25T01:39:48.745Z,6.83
2022-12-25T01:42:18.978Z,6.77
2022-12-25T01:44:45.491Z,5.40
2022-12-25T01:47:12.426Z,5.57
2022-12-25T01:49:40.783Z,7.80
2022-12-25T01:52:07.433Z,6.97
2022-12-25T01:54:36.357Z,5.50
2022-12-25T01:57:05.220Z,6.93
2022-12-25T01:59:31.852Z,7.37
2022-12-25T02:01:58.665Z,9.57
2022-12-25T02:04:38.928Z,8.20
2022-12-25T02:07:05.660Z,4.77
2022-12-25T02:09:32.394Z,6.97
2022-12-25T02:11:59.207Z,6.63
2022-12-25T02:14:27.946Z,7.77
2022-12-25T02:17:00.931Z,9.20
2022-12-25T02:19:47.544Z,4.97
2022-12-25T02:22:17.120Z,5.93
2022-12-25T02:24:49.654Z,7.37
2022-12-25T02:27:28.179Z,8.57
2022-12-25T02:30:07.482Z,7.53
2022-12-25T02:32:44.646Z,5.23
2022-12-25T02:35:31.189Z,6.73
2022-12-25T02:38:16.171Z,9.63
2022-12-25T02:40:45.497Z,8.90
2022-12-25T02:43:35.002Z,6.30
2022-12-25T02:46:22.923Z,8.00
2022-12-25T02:49:10.687Z,7.43
2022-12-25T02:51:57.831Z,6.17
2022-12-25T02:54:46.975Z,6.33
2022-12-25T02:57:33.387Z,7.67
2022-12-25T03:00:19.470Z,4.53
2022-12-25T03:03:06.250Z,7.73
2022-12-25T03:05:53.053Z,5.47
2022-12-25T03:08:21.683Z,6.00
2022-12-25T03:11:14.271Z,6.53
2022-12-25T03:13:41.740Z,6.27
2022-12-25T03:16:28.338Z,4.37
2022-12-25T03:18:56.045Z,3.57
2022-12-25T03:21:41.184Z,5.07
2022-12-25T03:24:26.147Z,3.60
2022-12-25T03:26:55.618Z,7.70
2022-12-25T03:29:44.486Z,3.27
2022-12-25T03:32:16.906Z,5.00
2022-12-25T03:35:01.987Z,4.93
2022-12-25T03:37:31.527Z,6.80
2022-12-25T03:39:58.021Z,5.70
2022-12-25T03:42:49.274Z,3.97
2022-12-25T03:45:38.821Z,3.70
2022-12-25T03:48:24.437Z,5.15
2022-12-25T03:51:20.180Z,4.03
2022-12-25T03:54:06.940Z,4.23
2022-12-25T03:56:52.599Z,3.47
2022-12-25T03:59:38.850Z,4.10
2022-12-25T04:02:24.253Z,2.77
2022-12-25T04:05:09.476Z,3.50
2022-12-25T04:07:54.861Z,2.50
2022-12-25T04:10:40.056Z,3.13
2022-12-25T04:13:25.330Z,4.73
2022-12-25T04:16:11.003Z,3.47
2022-12-25T04:18:56.209Z,4.70
2022-12-25T04:21:41.505Z,5.20
2022-12-25T04:24:28.230Z,4.83
2022-12-25T04:27:13.274Z,3.17
2022-12-25T04:29:58.582Z,4.67
2022-12-25T04:32:43.709Z,4.97
2022-12-25T04:35:28.988Z,5.77
2022-12-25T04:37:56.204Z,5.70
2022-12-25T04:40:22.793Z,5.20
2022-12-25T04:42:52.496Z,3.00
2022-12-25T04:45:19.327Z,3.03
2022-12-25T04:47:45.891Z,5.27
2022-12-25T04:50:12.418Z,5.80
2022-12-25T04:52:40.194Z,3.17
2022-12-25T04:55:07.255Z,5.03
2022-12-25T04:57:34.082Z,4.23
2022-12-25T05:00:00.813Z,5.53
2022-12-25T05:02:27.656Z,6.73
2022-12-25T05:04:54.303Z,3.20
2022-12-25T05:07:20.885Z,4.63
2022-12-25T05:09:47.412Z,3.47
2022-12-25T05:12:13.970Z,3.10
2022-12-25T05:14:41.235Z,3.93
2022-12-25T05:17:10.739Z,3.20
2022-12-25T05:19:37.296Z,4.60
2022-12-25T05:22:03.815Z,5.30
2022-12-25T05:24:30.384Z,3.43
2022-12-25T05:26:56.987Z,3.43
2022-12-25T05:29:23.507Z,4.23
2022-12-25T05:31:50.058Z,4.77
2022-12-25T05:34:16.665Z,3.27
2022-12-25T05:36:43.188Z,2.60
2022-12-25T05:39:09.711Z,2.93
2022-12-25T05:41:36.267Z,5.90
2022-12-25T05:44:02.808Z,3.87
2022-12-25T05:46:29.411Z,2.97
2022-12-25T05:48:55.990Z,3.70
2022-12-25T05:51:22.556Z,4.47
2022-12-25T05:53:49.146Z,7.33
2022-12-25T05:56:15.619Z,3.70
2022-12-25T05:58:42.143Z,4.03
2022-12-25T06:01:16.560Z,4.07
2022-12-25T06:03:43.275Z,3.93
2022-12-25T06:06:10.427Z,4.50
2022-12-25T06:08:37.061Z,3.23
2022-12-25T06:11:04.656Z,5.47
2022-12-25T06:13:31.731Z,5.07
2022-12-25T06:15:59.140Z,4.47
2022-12-25T06:18:26.461Z,4.47
2022-12-25T06:20:53.021Z,4.30
2022-12-25T06:23:19.601Z,4.23
2022-12-25T06:25:46.174Z,3.00
2022-12-25T06:28:12.700Z,3.10
2022-12-25T06:30:39.261Z,2.83
2022-12-25T06:33:05.851Z,2.93
2022-12-25T06:35:32.914Z,3.17
2022-12-25T06:37:59.457Z,3.73
2022-12-25T06:40:25.947Z,4.07
2022-12-25T06:42:52.740Z,4.97
2022-12-25T06:45:19.231Z,3.97
2022-12-25T06:47:45.796Z,2.83
2022-12-25T06:50:12.298Z,3.03
2022-12-25T06:52:38.783Z,2.70
2022-12-25T06:55:06.353Z,3.47
2022-12-25T06:57:32.977Z,2.87
2022-12-25T06:59:59.567Z,2.53
2022-12-25T07:02:26.214Z,2.63
2022-12-25T07:04:53.085Z,2.17
2022-12-25T07:07:20.741Z,3.57
2022-12-25T07:09:47.256Z,2.20
2022-12-25T07:12:15.761Z,2.90
2022-12-25T07:14:42.344Z,3.10
2022-12-25T07:17:09.010Z,3.70
2022-12-25T07:19:41.021Z,4.53
2022-12-25T07:22:11.094Z,5.50
2022-12-25T07:24:37.693Z,8.10
2022-12-25T07:27:04.249Z,3.13
2022-12-25T07:29:30.796Z,3.90
2022-12-25T07:31:57.517Z,3.93
2022-12-25T07:34:24.071Z,4.37
2022-12-25T07:36:50.611Z,4.67
2022-12-25T07:39:17.385Z,3.27
2022-12-25T07:41:44.396Z,3.73
2022-12-25T07:44:14.146Z,3.73
2022-12-25T07:46:40.722Z,2.93
2022-12-25T07:49:07.246Z,4.63
2022-12-25T07:51:34.035Z,7.80
2022-12-25T07:54:00.573Z,5.37
2022-12-25T07:56:27.103Z,5.97
2022-12-25T07:58:53.902Z,3.27
2022-12-25T08:01:21.853Z,4.03
2022-12-25T08:03:49.250Z,3.70
2022-12-25T08:06:15.868Z,5.73
2022-12-25T08:08:42.570Z,4.53
2022-12-25T08:11:09.778Z,4.20
2022-12-25T08:13:36.776Z,5.77
2022-12-25T08:16:04.487Z,6.07
2022-12-25T08:18:31.773Z,4.83
2022-12-25T08:21:05.888Z,5.50
2022-12-25T08:23:33.824Z,7.57
2022-12-25T08:26:05.151Z,4.90
2022-12-25T08:28:33.034Z,7.17
2022-12-25T08:30:59.665Z,4.23
2022-12-25T08:33:26.262Z,5.50
2022-12-25T08:35:52.853Z,5.87
2022-12-25T08:38:19.374Z,4.23
2022-12-25T08:40:45.849Z,4.83
2022-12-25T08:43:12.499Z,5.40
2022-12-25T08:45:39.119Z,4.33
2022-12-25T08:48:05.903Z,4.87
2022-12-25T08:50:32.551Z,5.17
2022-12-25T08:52:59.284Z,7.67
2022-12-25T08:55:25.831Z,5.07
2022-12-25T08:57:53.371Z,3.90
2022-12-25T09:00:20.086Z,5.20
2022-12-25T09:02:46.777Z,7.90
2022-12-25T09:05:13.476Z,4.33
2022-12-25T09:07:39.984Z,6.87
2022-12-25T09:10:06.943Z,7.27
2022-12-25T09:12:33.437Z,5.63
2022-12-25T09:14:59.985Z,7.70
2022-12-25T09:17:26.471Z,5.47
2022-12-25T09:19:53.024Z,4.17
2022-12-25T09:22:19.611Z,6.70
2022-12-25T09:24:46.129Z,4.27
2022-12-25T09:27:12.648Z,8.50
2022-12-25T09:29:39.225Z,5.73
2022-12-25T09:32:07.052Z,4.63
2022-12-25T09:34:33.582Z,4.63
2022-12-25T09:37:00.119Z,7.40
2022-12-25T09:39:27.063Z,4.90
2022-12-25T09:42:01.621Z,7.47
2022-12-25T09:44:37.991Z,12.83
2022-12-25T09:47:12.516Z,7.27
2022-12-25T09:49:42.101Z,11.63
2022-12-25T09:52:12.428Z,6.33
2022-12-25T09:54:41.719Z,8.17
2022-12-25T09:57:12.554Z,7.50
2022-12-25T09:59:39.555Z,7.97
2022-12-25T10:02:24.670Z,9.00
2022-12-25T10:04:58.946Z,6.93
2022-12-25T10:07:28.409Z,5.13
2022-12-25T10:10:07.126Z,6.30
2022-12-25T10:12:39.454Z,7.90
2022-12-25T10:15:05.994Z,10.33
2022-12-25T10:17:50.789Z,10.57
2022-12-25T10:20:39.641Z,7.77
2022-12-25T10:23:12.910Z,9.40
2022-12-25T10:25:40.121Z,15.17
2022-12-25T10:28:12.382Z,11.13
2022-12-25T10:30:39.782Z,11.47
2022-12-25T10:33:06.291Z,16.40
2022-12-25T10:35:32.992Z,6.63
2022-12-25T10:38:06.269Z,9.93
2022-12-25T10:40:38.644Z,8.03
2022-12-25T10:43:12.968Z,9.23
2022-12-25T10:45:43.369Z,5.87
2022-12-25T10:48:13.544Z,8.73
2022-12-25T10:50:43.107Z,9.63
2022-12-25T10:53:17.038Z,6.43
2022-12-25T10:55:43.576Z,8.07
2022-12-25T10:58:19.163Z,8.23
2022-12-25T11:00:51.103Z,9.73
2022-12-25T11:03:22.640Z,14.13
2022-12-25T11:05:51.374Z,10.37
2022-12-25T11:08:20.955Z,10.70
2022-12-25T11:10:57.519Z,5.87
2022-12-25T11:13:25.936Z,7.03
2022-12-25T11:16:14.190Z,9.17
2022-12-25T11:18:45.643Z,8.63
2022-12-25T11:21:17.656Z,11.60
2022-12-25T11:23:48.905Z,12.27
2022-12-25T11:26:16.371Z,15.17
2022-12-25T11:28:44.567Z,10.70
2022-12-25T11:31:16.956Z,13.90
2022-12-25T11:33:53.571Z,13.57
2022-12-25T11:36:25.301Z,20.00
2022-12-25T11:38:52.371Z,12.43
2022-12-25T11:41:20.822Z,10.73
2022-12-25T11:43:50.725Z,12.20
2022-12-25T11:46:26.426Z,8.70
2022-12-25T11:49:06.095Z,15.93
2022-12-25T11:51:34.657Z,17.37
2022-12-25T11:54:03.946Z,13.33
2022-12-25T11:56:30.820Z,10.53
2022-12-25T11:59:01.533Z,11.20
2022-12-25T12:01:34.487Z,12.03
2022-12-25T12:04:02.543Z,9.27
2022-12-25T12:06:41.240Z,12.23
2022-12-25T12:09:26.266Z,11.83
2022-12-25T12:11:58.234Z,11.70
2022-12-25T12:14:30.566Z,12.07
2022-12-25T12:16:57.219Z,13.37
2022-12-25T12:19:31.413Z,15.73
2022-12-25T12:22:00.093Z,14.20
2022-12-25T12:24:33.293Z,12.00
2022-12-25T12:27:04.562Z,16.73
2022-12-25T12:29:38.823Z,11.97
2022-12-25T12:32:06.267Z,15.57
2022-12-25T12:34:40.336Z,10.23
2022-12-25T12:37:11.344Z,11.33
2022-12-25T12:39:39.386Z,9.20
2022-12-25T12:42:20.139Z,11.13
2022-12-25T12:44:48.518Z,13.63
2022-12-25T12:47:34.132Z,12.13
2022-12-25T12:50:01.674Z,13.23
2022-12-25T12:52:36.035Z,8.80
2022-12-25T12:55:02.614Z,9.53
2022-12-25T12:57:32.744Z,11.03
2022-12-25T13:00:04.802Z,12.63
2022-12-25T13:02:41.556Z,7.70
2022-12-25T13:05:17.759Z,12.50
2022-12-25T13:08:03.035Z,12.37
2022-12-25T13:10:33.965Z,10.87
2022-12-25T13:13:01.669Z,11.53
2022-12-25T13:15:30.245Z,10.83
2022-12-25T13:18:04.600Z,12.97
2022-12-25T13:20:37.979Z,7.43
2022-12-25T13:23:22.593Z,9.10
2022-12-25T13:25:53.054Z,7.13
2022-12-25T13:28:24.480Z,11.27
2022-12-25T13:30:51.003Z,10.57
2022-12-25T13:33:19.275Z,7.60
2022-12-25T13:35:46.542Z,9.70
2022-12-25T13:38:17.343Z,7.77
2022-12-25T13:41:13.742Z,8.27
2022-12-25T13:43:41.166Z,9.67
2022-12-25T13:46:07.798Z,9.20
2022-12-25T13:48:34.416Z,10.10
2022-12-25T13:51:01.737Z,8.93
2022-12-25T13:53:28.454Z,6.83
2022-12-25T13:55:55.865Z,6.73
2022-12-25T13:58:33.663Z,9.10
2022-12-25T14:01:01.336Z,9.37
2022-12-25T14:03:35.165Z,8.60
2022-12-25T14:06:02.845Z,9.40
2022-12-25T14:08:32.103Z,6.73
2022-12-25T14:11:00.371Z,6.47
2022-12-25T14:13:28.788Z,7.87
2022-12-25T14:15:56.074Z,10.53
2022-12-25T14:18:23.388Z,6.93
2022-12-25T14:21:07.166Z,6.87
2022-12-25T14:23:53.923Z,9.77
2022-12-25T14:26:22.552Z,13.00
2022-12-25T14:28:50.595Z,11.20
2022-12-25T14:31:17.464Z,8.77
2022-12-25T14:33:45.197Z,9.20
2022-12-25T14:36:13.193Z,8.03
2022-12-25T14:38:41.663Z,8.77
2022-12-25T14:41:21.207Z,8.90
2022-12-25T14:43:54.693Z,9.07
2022-12-25T14:46:26.141Z,13.07
2022-12-25T14:49:06.718Z,13.63
2022-12-25T14:51:35.344Z,29.33
2022-12-25T14:54:04.996Z,17.47
2022-12-25T14:56:39.245Z,22.03
2022-12-25T14:59:10.082Z,19.70
2022-12-25T15:01:39.008Z,15.83
2022-12-25T15:04:07.479Z,20.97
2022-12-25T15:06:34.085Z,15.97
2022-12-25T15:09:02.420Z,16.27
2022-12-25T15:11:29.242Z,11.57
2022-12-25T15:13:55.901Z,13.40
2022-12-25T15:16:24.162Z,11.60
2022-12-25T15:18:51.105Z,14.57
2022-12-25T15:21:22.055Z,14.00
2022-12-25T15:23:48.645Z,11.27
2022-12-25T15:26:15.276Z,13.87
2022-12-25T15:28:42.127Z,8.17
2022-12-25T15:31:18.435Z,10.27
2022-12-25T15:33:44.949Z,12.20
2022-12-25T15:36:11.481Z,11.07
2022-12-25T15:38:38.948Z,11.07
2022-12-25T15:41:34.031Z,15.37
2022-12-25T15:44:00.765Z,19.43
2022-12-25T15:46:27.408Z,10.70
2022-12-25T15:48:53.962Z,12.20
2022-12-25T15:51:20.551Z,14.63
2022-12-25T15:53:47.036Z,34.77
2022-12-25T15:56:13.803Z,78.33
2022-12-25T15:58:40.426Z,72.30
2022-12-25T16:01:07.358Z,46.53
2022-12-25T16:03:33.950Z,16.57
2022-12-25T16:06:00.509Z,28.23
2022-12-25T16:08:27.071Z,28.00
2022-12-25T16:11:00.278Z,17.87
2022-12-25T16:13:27.581Z,14.40
2022-12-25T16:15:54.118Z,20.53
2022-12-25T16:18:21.393Z,13.83
2022-12-25T16:20:47.946Z,19.80
2022-12-25T16:23:14.470Z,51.57
2022-12-25T16:25:40.989Z,36.53
2022-12-25T16:28:10.286Z,22.00
2022-12-25T16:30:37.750Z,18.50
2022-12-25T16:33:04.249Z,34.80
2022-12-25T16:35:30.972Z,16.63
2022-12-25T16:37:57.474Z,20.17
2022-12-25T16:40:24.013Z,16.97
2022-12-25T16:42:50.544Z,15.43
2022-12-25T16:45:17.240Z,17.13
2022-12-25T16:47:43.728Z,11.10
2022-12-25T16:50:10.414Z,26.03
2022-12-25T16:52:37.065Z,13.13
2022-12-25T16:55:04.024Z,13.87
2022-12-25T16:57:31.343Z,15.97
2022-12-25T16:59:58.400Z,13.20
2022-12-25T17:02:25.172Z,14.90
2022-12-25T17:04:51.855Z,8.53
2022-12-25T17:07:18.730Z,10.20
2022-12-25T17:09:48.830Z,8.43
2022-12-25T17:12:15.750Z,6.87
2022-12-25T17:14:42.286Z,7.50
2022-12-25T17:17:08.794Z,12.93
2022-12-25T17:19:35.513Z,13.27
2022-12-25T17:22:02.036Z,41.27
2022-12-25T17:24:28.967Z,32.83
2022-12-25T17:26:55.552Z,29.67
2022-12-25T17:29:23.035Z,19.63
2022-12-25T17:31:50.130Z,17.00
2022-12-25T17:34:16.979Z,15.27
2022-12-25T17:36:43.589Z,12.27
2022-12-25T17:39:10.388Z,11.97
2022-12-25T17:41:36.950Z,15.23
2022-12-25T17:44:03.493Z,13.40
2022-12-25T17:46:30.552Z,8.90
2022-12-25T17:48:57.917Z,16.63
2022-12-25T17:51:25.425Z,25.30
2022-12-25T17:53:53.286Z,19.70
2022-12-25T17:56:20.209Z,14.23
2022-12-25T17:58:53.700Z,20.20
2022-12-25T18:01:20.639Z,14.93
2022-12-25T18:03:47.716Z,13.90
2022-12-25T18:06:17.814Z,16.17
2022-12-25T18:08:45.020Z,21.77
2022-12-25T18:11:15.229Z,21.90
2022-12-25T18:13:44.727Z,19.80
2022-12-25T18:16:12.461Z,13.87
2022-12-25T18:18:39.600Z,15.37
2022-12-25T18:21:06.299Z,14.10
2022-12-25T18:23:33.132Z,12.80
2022-12-25T18:26:02.228Z,13.57
2022-12-25T18:28:28.781Z,18.60
2022-12-25T18:30:55.354Z,17.27
2022-12-25T18:33:21.881Z,28.40
2022-12-25T18:35:48.401Z,36.47
2022-12-25T18:38:15.101Z,31.13
2022-12-25T18:40:45.312Z,25.53
2022-12-25T18:43:12.112Z,17.00
2022-12-25T18:45:38.814Z,14.37
2022-12-25T18:48:06.419Z,14.03
2022-12-25T18:50:37.154Z,14.23
2022-12-25T18:53:04.000Z,12.97
2022-12-25T18:55:30.572Z,13.60
2022-12-25T18:57:58.651Z,26.43
2022-12-25T19:00:25.568Z,19.63
2022-12-25T19:02:55.835Z,16.33
2022-12-25T19:05:23.499Z,25.97
2022-12-25T19:07:50.037Z,39.17
2022-12-25T19:10:16.665Z,29.27
2022-12-25T19:12:43.287Z,24.20
2022-12-25T19:15:10.104Z,17.23
2022-12-25T19:17:36.653Z,28.13
2022-12-25T19:20:03.403Z,19.00
2022-12-25T19:22:29.983Z,28.20
2022-12-25T19:24:56.654Z,28.53
2022-12-25T19:27:23.522Z,16.47
2022-12-25T19:29:50.041Z,15.27
2022-12-25T19:32:16.632Z,14.63
2022-12-25T19:34:43.330Z,18.17
2022-12-25T19:37:09.963Z,15.40
2022-12-25T19:39:36.689Z,14.40
2022-12-25T19:42:03.295Z,12.80
2022-12-25T19:44:29.852Z,16.90
2022-12-25T19:46:57.076Z,18.17
2022-12-25T19:49:25.621Z,15.10
2022-12-25T19:51:52.203Z,30.50
2022-12-25T19:54:20.658Z,20.63
2022-12-25T19:56:48.401Z,18.47
2022-12-25T19:59:15.585Z,18.63
2022-12-25T20:01:42.715Z,16.23
2022-12-25T20:04:09.823Z,18.50
2022-12-25T20:06:38.342Z,18.03
2022-12-25T20:09:09.445Z,12.47
2022-12-25T20:11:36.579Z,12.87
2022-12-25T20:14:03.729Z,12.90
2022-12-25T20:16:30.334Z,15.77
2022-12-25T20:18:57.089Z,10.17
2022-12-25T20:21:23.932Z,13.57
2022-12-25T20:23:51.328Z,12.00
2022-12-25T20:26:18.748Z,11.37
2022-12-25T20:28:45.654Z,9.87
2022-12-25T20:31:20.771Z,10.13
2022-12-25T20:33:47.407Z,8.80
2022-12-25T20:36:14.619Z,13.57
2022-12-25T20:38:41.492Z,11.27
2022-12-25T20:41:27.341Z,12.03
2022-12-25T20:43:55.531Z,11.07
2022-12-25T20:46:22.497Z,13.43
2022-12-25T20:48:49.258Z,10.40
2022-12-25T20:51:17.243Z,10.90
2022-12-25T20:53:44.790Z,8.30
2022-12-25T20:56:12.473Z,10.20
2022-12-25T20:58:39.309Z,10.27
2022-12-25T21:01:06.649Z,11.57
2022-12-25T21:03:33.929Z,8.77
2022-12-25T21:06:01.098Z,9.93
2022-12-25T21:08:27.904Z,11.30
2022-12-25T21:10:56.301Z,9.90
2022-12-25T21:13:24.031Z,7.87
2022-12-25T21:15:51.639Z,10.43
2022-12-25T21:18:20.437Z,9.07
2022-12-25T21:20:47.945Z,9.67
2022-12-25T21:23:15.028Z,8.53
2022-12-25T21:25:41.648Z,11.00
2022-12-25T21:28:08.469Z,8.97
2022-12-25T21:30:35.450Z,10.37
2022-12-25T21:33:21.187Z,11.33
2022-12-25T21:35:47.882Z,8.07
2022-12-25T21:38:14.473Z,11.17
2022-12-25T21:40:41.063Z,9.17
2022-12-25T21:43:07.621Z,9.77
2022-12-25T21:45:35.045Z,14.23
2022-12-25T21:48:03.650Z,9.77
2022-12-25T21:50:49.088Z,9.63
2022-12-25T21:53:16.981Z,12.80
2022-12-25T21:55:54.511Z,9.70
2022-12-25T21:58:21.020Z,10.10
2022-12-25T22:00:47.627Z,12.57
2022-12-25T22:03:14.518Z,9.63
2022-12-25T22:05:59.912Z,9.63
2022-12-25T22:08:29.420Z,11.33
2022-12-25T22:10:56.735Z,9.67
2022-12-25T22:13:42.022Z,13.00
2022-12-25T22:16:27.039Z,10.93
2022-12-25T22:19:12.817Z,8.63
2022-12-25T22:21:39.349Z,8.77
2022-12-25T22:24:08.167Z,12.23
2022-12-25T22:26:35.056Z,9.60
2022-12-25T22:29:01.709Z,9.60
2022-12-25T22:31:28.286Z,10.00
2022-12-25T22:33:55.486Z,10.90
2022-12-25T22:36:22.031Z,22.10
2022-12-25T22:38:48.546Z,11.37
2022-12-25T22:41:15.574Z,15.67
2022-12-25T22:44:16.059Z,11.37
2022-12-25T22:46:28.843Z,10.33
2022-12-25T22:48:55.369Z,14.03
2022-12-25T22:51:21.972Z,9.60
2022-12-25T22:53:50.006Z,11.83
2022-12-25T22:56:16.692Z,13.00
2022-12-25T22:58:43.520Z,14.23
2022-12-25T23:01:10.623Z,11.20
2022-12-25T23:03:37.389Z,11.40
2022-12-25T23:06:04.045Z,11.50
2022-12-25T23:08:30.703Z,9.97
2022-12-25T23:11:01.393Z,12.63
2022-12-25T23:13:46.578Z,10.60
2022-12-25T23:16:13.899Z,9.00
2022-12-25T23:18:59.224Z,11.57
2022-12-25T23:21:45.494Z,10.80
2022-12-25T23:24:30.737Z,10.93
2022-12-25T23:26:57.915Z,13.77
2022-12-25T23:29:36.559Z,10.87
2022-12-25T23:32:04.950Z,9.90
2022-12-25T23:34:31.879Z,13.87
2022-12-25T23:36:58.903Z,18.37
2022-12-25T23:39:25.839Z,13.00
2022-12-25T23:41:52.401Z,12.43
2022-12-25T23:44:19.075Z,9.97
2022-12-25T23:46:52.524Z,12.40
2022-12-25T23:49:20.660Z,12.70
2022-12-25T23:51:48.292Z,11.13
2022-12-25T23:54:19.361Z,12.50
2022-12-25T23:56:46.321Z,13.33
2022-12-25T23:59:13.044Z,14.37
